Time;durP1;ratioP1;P1;durP2;ratioP2;P2;SDS_P1;SDS_P2;PMS_P1;PMS_P2;Temp;Humidity;BMP_temperature;BMP_pressure;BME280_temperature;BME280_humidity;BME280_pressure;Samples;Min_cycle;Max_cycle;Signal;HPM_P1;HPM_P2
2021/10/23 00:00:55;;;;;;;;;;;12.40;99.90;;;;;;4974783;28;20397;-73
2021/10/23 00:03:20;;;;;;;;;;;12.30;99.90;;;;;;4974728;28;20004;-74
2021/10/23 00:05:46;;;;;;;;;;;12.20;99.90;;;;;;4974715;28;20350;-74
2021/10/23 00:08:11;;;;;;;;;;;12.20;99.90;;;;;;4974491;28;20255;-76
2021/10/23 00:10:37;;;;;;;;;;;12.30;99.90;;;;;;4975308;28;19913;-74
2021/10/23 00:13:04;;;;;;;;;;;12.30;99.90;;;;;;4974673;28;19993;-74
2021/10/23 00:15:30;;;;;;;;;;;12.30;99.90;;;;;;4973403;28;19906;-74
2021/10/23 00:17:55;;;;;;;;;;;12.30;99.90;;;;;;4974912;28;19906;-76
2021/10/23 00:20:21;;;;;;;;;;;12.30;99.90;;;;;;4974618;28;20386;-73
2021/10/23 00:22:46;;;;;;;;;;;12.20;99.90;;;;;;4974796;28;19906;-74
2021/10/23 00:25:12;;;;;;;;;;;12.10;99.90;;;;;;4978588;28;19906;-75
2021/10/23 00:27:37;;;;;;;;;;;12.00;99.90;;;;;;4978100;28;19918;-73
2021/10/23 00:30:03;;;;;;;;;;;11.90;99.90;;;;;;4978539;28;19906;-74
2021/10/23 00:32:29;;;;;;;;;;;11.90;99.90;;;;;;4978219;28;19933;-77
2021/10/23 00:34:54;;;;;;;;;;;12.00;99.90;;;;;;4978191;28;19906;-76
2021/10/23 00:37:20;;;;;;;;;;;12.00;99.90;;;;;;4978161;28;19961;-73
2021/10/23 00:39:46;;;;;;;;;;;11.90;99.90;;;;;;4978380;28;19910;-76
2021/10/23 00:42:12;;;;;;;;;;;11.80;99.90;;;;;;4978041;28;19993;-73
2021/10/23 00:44:40;;;;;;;;;;;11.70;99.90;;;;;;4978238;28;19910;-71
2021/10/23 00:47:06;;;;;;;;;;;11.60;99.90;;;;;;4977967;28;19910;-78
2021/10/23 00:49:33;;;;;;;;;;;11.50;99.90;;;;;;4977957;28;19913;-75
2021/10/23 00:51:59;;;;;;;;;;;11.60;99.90;;;;;;4978129;28;19960;-75
2021/10/23 00:54:26;;;;;;;;;;;11.50;99.90;;;;;;4977828;28;20367;-74
2021/10/23 00:56:52;;;;;;;;;;;11.50;99.90;;;;;;4978356;28;20394;-73
2021/10/23 00:59:18;;;;;;;;;;;11.40;99.90;;;;;;4977760;28;19906;-73
2021/10/23 01:01:44;;;;;;;;;;;11.30;99.90;;;;;;4976455;28;19935;-78
2021/10/23 01:04:09;;;;;;;;;;;11.30;99.90;;;;;;4977580;28;19916;-78
2021/10/23 01:06:35;;;;;;;;;;;11.20;99.90;;;;;;4977920;28;19910;-74
2021/10/23 01:09:00;;;;;;;;;;;11.20;99.90;;;;;;4977857;28;19929;-77
2021/10/23 01:11:27;;;;;;;;;;;11.20;99.90;;;;;;4978047;28;19906;-72
2021/10/23 01:13:52;;;;;;;;;;;11.00;99.90;;;;;;4977454;28;19906;-75
2021/10/23 01:16:18;;;;;;;;;;;10.90;99.90;;;;;;4977446;28;20063;-74
2021/10/23 01:18:44;;;;;;;;;;;10.90;99.90;;;;;;4977707;28;20275;-75
2021/10/23 01:21:10;;;;;;;;;;;10.90;99.90;;;;;;4977344;28;19913;-74
2021/10/23 01:23:36;;;;;;;;;;;11.00;99.90;;;;;;4977203;28;19910;-73
2021/10/23 01:26:02;;;;;;;;;;;11.00;99.90;;;;;;4977551;28;20365;-74
2021/10/23 01:28:27;;;;;;;;;;;10.90;99.90;;;;;;4976994;28;19924;-74
2021/10/23 01:30:57;;;;;;;;;;;10.90;99.90;;;;;;4977142;28;20001;-74
2021/10/23 01:33:22;;;;;;;;;;;10.90;99.90;;;;;;4977415;28;20358;-74
2021/10/23 01:35:48;;;;;;;;;;;10.90;99.90;;;;;;4975952;28;19910;-72
2021/10/23 01:38:14;;;;;;;;;;;10.80;99.90;;;;;;4977638;28;20408;-75
2021/10/23 01:40:39;;;;;;;;;;;10.80;99.90;;;;;;4975753;28;19906;-75
2021/10/23 01:43:05;;;;;;;;;;;10.80;99.90;;;;;;4976943;28;19905;-73
2021/10/23 01:45:31;;;;;;;;;;;10.70;99.90;;;;;;4977223;28;20000;-74
2021/10/23 01:47:57;;;;;;;;;;;10.70;99.90;;;;;;4976912;28;19953;-76
2021/10/23 01:50:23;;;;;;;;;;;10.70;99.90;;;;;;4977430;28;20302;-76
2021/10/23 01:52:52;;;;;;;;;;;10.90;99.90;;;;;;4976806;28;19910;-77
2021/10/23 01:55:18;;;;;;;;;;;10.80;99.90;;;;;;4977040;28;19993;-74
2021/10/23 01:57:44;;;;;;;;;;;10.70;99.90;;;;;;4976632;28;19961;-74
2021/10/23 02:00:10;;;;;;;;;;;10.70;99.90;;;;;;4976654;28;20318;-74
2021/10/23 02:02:36;;;;;;;;;;;10.60;99.90;;;;;;4976877;28;19906;-73
2021/10/23 02:05:01;;;;;;;;;;;10.60;99.90;;;;;;4976500;28;20417;-76
2021/10/23 02:07:27;;;;;;;;;;;10.60;99.90;;;;;;4977109;28;20005;-75
2021/10/23 02:09:52;;;;;;;;;;;10.70;99.90;;;;;;4976728;28;19961;-77
2021/10/23 02:12:18;;;;;;;;;;;10.60;99.90;;;;;;4976703;28;19909;-77
2021/10/23 02:14:43;;;;;;;;;;;10.40;99.90;;;;;;4976390;28;19988;-75
2021/10/23 02:17:09;;;;;;;;;;;10.20;99.90;;;;;;4976574;28;19906;-73
2021/10/23 02:19:34;;;;;;;;;;;10.00;99.90;;;;;;4976291;28;19988;-73
2021/10/23 02:22:00;;;;;;;;;;;10.10;99.90;;;;;;4976439;28;19955;-73
2021/10/23 02:24:25;;;;;;;;;;;9.80;99.90;;;;;;4976106;28;20008;-75
2021/10/23 02:26:51;;;;;;;;;;;9.90;99.90;;;;;;4976193;28;19918;-74
2021/10/23 02:29:16;;;;;;;;;;;9.80;99.90;;;;;;4976435;28;20343;-73
2021/10/23 02:31:42;;;;;;;;;;;9.80;99.90;;;;;;4976072;28;19992;-74
2021/10/23 02:34:08;;;;;;;;;;;9.90;99.90;;;;;;4976245;28;20290;-74
2021/10/23 02:36:33;;;;;;;;;;;10.00;99.90;;;;;;4975983;28;19956;-74
2021/10/23 02:38:59;;;;;;;;;;;10.00;99.90;;;;;;4974665;28;19961;-76
2021/10/23 02:41:25;;;;;;;;;;;9.90;99.90;;;;;;4975909;28;19913;-75
2021/10/23 02:43:51;;;;;;;;;;;9.80;99.90;;;;;;4975742;28;20008;-76
2021/10/23 02:46:18;;;;;;;;;;;9.80;99.90;;;;;;4975786;28;20363;-73
2021/10/23 02:48:43;;;;;;;;;;;9.80;99.90;;;;;;4976004;28;19906;-77
2021/10/23 02:51:09;;;;;;;;;;;9.70;99.90;;;;;;4975678;28;19976;-74
2021/10/23 02:53:34;;;;;;;;;;;9.90;99.90;;;;;;4976223;28;19992;-74
2021/10/23 02:56:00;;;;;;;;;;;9.90;99.90;;;;;;4975591;28;19913;-74
2021/10/23 02:58:25;;;;;;;;;;;9.90;99.90;;;;;;4975600;28;19913;-73
2021/10/23 03:00:51;;;;;;;;;;;9.90;99.90;;;;;;4975562;28;19960;-74
2021/10/23 03:03:17;;;;;;;;;;;9.80;99.90;;;;;;4975975;28;20003;-75
2021/10/23 03:05:43;;;;;;;;;;;9.60;99.90;;;;;;4975481;28;19909;-74
2021/10/23 03:08:09;;;;;;;;;;;9.70;99.90;;;;;;4975413;28;19917;-72
2021/10/23 03:10:34;;;;;;;;;;;9.60;99.90;;;;;;4975660;28;19906;-73
2021/10/23 03:13:00;;;;;;;;;;;9.50;99.90;;;;;;4975327;28;19906;-74
2021/10/23 03:15:25;;;;;;;;;;;9.60;99.90;;;;;;4975320;28;19906;-78
2021/10/23 03:17:51;;;;;;;;;;;9.40;99.90;;;;;;4975275;28;19906;-72
2021/10/23 03:20:16;;;;;;;;;;;9.30;99.90;;;;;;4975504;28;19906;-76
2021/10/23 03:22:43;;;;;;;;;;;9.30;99.90;;;;;;4975300;28;19960;-72
2021/10/23 03:25:08;;;;;;;;;;;9.30;99.90;;;;;;4975151;28;19914;-72
2021/10/23 03:27:37;;;;;;;;;;;9.10;99.90;;;;;;4975274;28;19925;-77
2021/10/23 03:30:04;;;;;;;;;;;9.10;99.90;;;;;;4975170;28;20286;-73
2021/10/23 03:32:29;;;;;;;;;;;9.00;99.90;;;;;;4975052;28;19992;-78
2021/10/23 03:34:59;;;;;;;;;;;9.10;99.90;;;;;;4975365;28;20397;-76
2021/10/23 03:37:26;;;;;;;;;;;9.00;99.90;;;;;;4975026;28;19906;-74
2021/10/23 03:39:52;;;;;;;;;;;9.00;99.90;;;;;;4975311;28;20370;-72
2021/10/23 03:42:17;;;;;;;;;;;8.90;99.90;;;;;;4974993;28;19906;-74
2021/10/23 03:44:43;;;;;;;;;;;8.70;99.90;;;;;;4975154;28;19965;-74
2021/10/23 03:47:08;;;;;;;;;;;8.70;99.90;;;;;;4974902;28;20000;-74
2021/10/23 03:49:34;;;;;;;;;;;9.00;99.90;;;;;;4975226;28;19906;-73
2021/10/23 03:51:59;;;;;;;;;;;9.00;99.90;;;;;;4973620;28;19906;-75
2021/10/23 03:54:25;;;;;;;;;;;8.90;99.90;;;;;;4974872;28;19906;-77
2021/10/23 03:56:50;;;;;;;;;;;8.80;99.90;;;;;;4975164;28;20286;-78
2021/10/23 03:59:16;;;;;;;;;;;8.90;99.90;;;;;;4977264;28;19906;-75
2021/10/23 04:01:42;;;;;;;;;;;8.80;99.90;;;;;;4979069;28;19906;-74
2021/10/23 04:04:08;;;;;;;;;;;8.90;99.90;;;;;;4978685;28;19957;-72
2021/10/23 04:06:33;;;;;;;;;;;9.10;99.90;;;;;;4979028;28;20390;-77
2021/10/23 04:08:59;;;;;;;;;;;9.10;99.90;;;;;;4978672;28;19969;-78
2021/10/23 04:11:24;;;;;;;;;;;9.20;99.90;;;;;;4978911;28;19906;-77
2021/10/23 04:13:50;;;;;;;;;;;9.30;99.90;;;;;;4978580;28;19906;-77
2021/10/23 04:16:16;;;;;;;;;;;9.00;99.90;;;;;;4978556;28;19967;-75
2021/10/23 04:18:42;;;;;;;;;;;8.80;99.90;;;;;;4978526;28;19913;-76
2021/10/23 04:21:08;;;;;;;;;;;8.60;99.90;;;;;;4977024;28;19906;-74
2021/10/23 04:23:33;;;;;;;;;;;8.70;99.90;;;;;;4978264;28;20389;-75
2021/10/23 04:25:59;;;;;;;;;;;8.60;99.90;;;;;;4978647;28;20285;-76
2021/10/23 04:28:24;;;;;;;;;;;8.50;99.90;;;;;;4978119;28;20417;-73
2021/10/23 04:30:51;;;;;;;;;;;8.30;99.90;;;;;;4978293;28;19906;-72
2021/10/23 04:33:16;;;;;;;;;;;8.30;99.90;;;;;;4978555;28;20358;-75
2021/10/23 04:35:42;;;;;;;;;;;8.40;99.90;;;;;;4978217;28;19913;-75
2021/10/23 04:38:07;;;;;;;;;;;8.20;99.90;;;;;;4978717;28;19932;-76
2021/10/23 04:40:33;;;;;;;;;;;8.30;99.90;;;;;;4978138;28;20370;-76
2021/10/23 04:42:58;;;;;;;;;;;8.30;99.90;;;;;;4978294;28;19917;-78
2021/10/23 04:45:24;;;;;;;;;;;8.30;99.90;;;;;;4978001;28;20011;-73
2021/10/23 04:47:49;;;;;;;;;;;8.20;99.90;;;;;;4976711;28;19913;-77
2021/10/23 04:50:15;;;;;;;;;;;8.40;99.90;;;;;;4978238;28;19906;-72
2021/10/23 04:52:40;;;;;;;;;;;8.40;99.90;;;;;;4977883;28;19906;-74
2021/10/23 04:55:06;;;;;;;;;;;8.50;99.90;;;;;;4977846;28;20263;-74
2021/10/23 04:57:32;;;;;;;;;;;8.40;99.90;;;;;;4978412;28;20014;-75
2021/10/23 04:59:57;;;;;;;;;;;8.20;99.90;;;;;;4977791;28;19906;-72
2021/10/23 05:02:23;;;;;;;;;;;8.00;99.90;;;;;;4977709;28;19913;-78
2021/10/23 05:04:48;;;;;;;;;;;8.20;99.90;;;;;;4977308;28;19937;-71
2021/10/23 05:07:14;;;;;;;;;;;7.90;99.90;;;;;;4977920;28;20005;-75
2021/10/23 05:09:39;;;;;;;;;;;8.10;99.90;;;;;;4977466;28;19906;-76
2021/10/23 05:12:05;;;;;;;;;;;8.20;99.90;;;;;;4977554;28;19945;-75
2021/10/23 05:14:30;;;;;;;;;;;8.20;99.90;;;;;;4977546;28;19956;-74
2021/10/23 05:16:56;;;;;;;;;;;8.30;99.90;;;;;;4977453;28;19906;-77
2021/10/23 05:19:21;;;;;;;;;;;8.30;99.90;;;;;;4977692;28;19960;-74
2021/10/23 05:21:47;;;;;;;;;;;8.20;99.90;;;;;;4977384;28;19906;-76
2021/10/23 05:24:13;;;;;;;;;;;8.20;99.90;;;;;;4977081;28;20052;-74
2021/10/23 05:26:38;;;;;;;;;;;8.30;99.90;;;;;;4977367;28;20302;-77
2021/10/23 05:29:04;;;;;;;;;;;8.20;99.90;;;;;;4977905;28;20366;-74
2021/10/23 05:31:29;;;;;;;;;;;8.40;99.90;;;;;;4977198;28;20352;-73
2021/10/23 05:33:55;;;;;;;;;;;8.30;99.90;;;;;;4977447;28;19913;-77
2021/10/23 05:36:20;;;;;;;;;;;8.20;99.90;;;;;;4977130;28;19913;-73
2021/10/23 05:38:47;;;;;;;;;;;8.30;99.90;;;;;;4977619;28;20363;-72
2021/10/23 05:41:13;;;;;;;;;;;8.20;99.90;;;;;;4975564;28;19913;-75
2021/10/23 05:43:38;;;;;;;;;;;8.10;99.90;;;;;;4976915;28;19910;-74
2021/10/23 05:46:04;;;;;;;;;;;7.80;99.90;;;;;;4976927;28;19913;-73
2021/10/23 05:48:29;;;;;;;;;;;7.90;99.90;;;;;;4977227;28;19913;-73
2021/10/23 05:50:55;;;;;;;;;;;8.00;99.90;;;;;;4976862;28;20010;-74
2021/10/23 05:53:20;;;;;;;;;;;7.90;99.90;;;;;;4976816;28;19906;-74
2021/10/23 05:55:46;;;;;;;;;;;8.00;99.90;;;;;;4977042;28;19913;-77
2021/10/23 05:58:11;;;;;;;;;;;7.90;99.90;;;;;;4976710;28;19913;-74
2021/10/23 06:00:38;;;;;;;;;;;7.90;99.90;;;;;;4976679;28;19906;-77
2021/10/23 06:03:04;;;;;;;;;;;7.90;99.90;;;;;;4976846;28;19913;-73
2021/10/23 06:05:30;;;;;;;;;;;8.00;99.90;;;;;;4976606;28;19910;-75
2021/10/23 06:07:55;;;;;;;;;;;7.80;99.90;;;;;;4976822;28;19992;-74
2021/10/23 06:10:21;;;;;;;;;;;7.70;99.90;;;;;;4976512;28;20282;-75
2021/10/23 06:12:47;;;;;;;;;;;7.70;99.90;;;;;;4976439;28;20259;-74
2021/10/23 06:15:12;;;;;;;;;;;7.60;99.90;;;;;;4976435;28;19913;-75
2021/10/23 06:17:40;;;;;;;;;;;7.50;99.90;;;;;;4976648;28;20379;-77
2021/10/23 06:20:06;;;;;;;;;;;7.70;99.90;;;;;;4976320;28;19961;-75
2021/10/23 06:22:31;;;;;;;;;;;7.80;99.90;;;;;;4975816;28;20327;-75
2021/10/23 06:24:57;;;;;;;;;;;7.70;99.90;;;;;;4976121;28;20005;-73
2021/10/23 06:27:22;;;;;;;;;;;7.80;99.90;;;;;;4976373;28;19958;-79
2021/10/23 06:29:48;;;;;;;;;;;7.70;99.90;;;;;;4976122;28;20374;-73
2021/10/23 06:32:14;;;;;;;;;;;7.70;99.90;;;;;;4976339;28;19906;-76
2021/10/23 06:34:41;;;;;;;;;;;7.60;99.90;;;;;;4976076;28;19956;-74
2021/10/23 06:37:10;;;;;;;;;;;7.40;99.90;;;;;;4974731;28;20294;-75
2021/10/23 06:39:36;;;;;;;;;;;7.40;99.90;;;;;;4975965;28;19906;-72
2021/10/23 06:42:01;;;;;;;;;;;7.40;99.90;;;;;;4976450;28;19989;-77
2021/10/23 06:44:27;;;;;;;;;;;7.40;99.90;;;;;;4976093;28;20359;-74
2021/10/23 06:46:52;;;;;;;;;;;7.50;99.90;;;;;;4976339;28;19906;-75
2021/10/23 06:49:18;;;;;;;;;;;7.40;99.90;;;;;;4975771;28;19906;-72
2021/10/23 06:51:43;;;;;;;;;;;7.60;99.90;;;;;;4976251;28;20347;-75
2021/10/23 06:54:09;;;;;;;;;;;7.60;99.90;;;;;;4975675;28;19910;-73
2021/10/23 06:56:35;;;;;;;;;;;7.50;99.90;;;;;;4975634;28;19906;-74
2021/10/23 06:59:00;;;;;;;;;;;7.50;99.90;;;;;;4975643;28;19906;-72
2021/10/23 07:01:26;;;;;;;;;;;7.40;99.90;;;;;;4975564;28;19949;-76
2021/10/23 07:03:52;;;;;;;;;;;7.40;99.90;;;;;;4975456;28;19917;-75
2021/10/23 07:06:18;;;;;;;;;;;7.50;99.90;;;;;;4975483;28;20000;-75
2021/10/23 07:08:43;;;;;;;;;;;7.40;99.90;;;;;;4975724;28;20358;-71
2021/10/23 07:11:09;;;;;;;;;;;7.30;99.90;;;;;;4975416;28;20293;-76
2021/10/23 07:13:35;;;;;;;;;;;7.20;99.90;;;;;;4975409;28;19906;-74
2021/10/23 07:16:01;;;;;;;;;;;7.20;99.90;;;;;;4975371;28;19906;-72
2021/10/23 07:18:26;;;;;;;;;;;7.60;99.90;;;;;;4975292;28;19906;-73
2021/10/23 07:20:52;;;;;;;;;;;7.70;99.90;;;;;;4975541;28;19906;-74
2021/10/23 07:23:17;;;;;;;;;;;7.60;99.90;;;;;;4973837;28;19945;-72
2021/10/23 07:25:44;;;;;;;;;;;7.60;99.90;;;;;;4975488;28;19941;-72
2021/10/23 07:28:10;;;;;;;;;;;7.70;99.90;;;;;;4974974;28;20357;-74
2021/10/23 07:30:36;;;;;;;;;;;7.70;99.90;;;;;;4975139;28;20006;-72
2021/10/23 07:33:01;;;;;;;;;;;7.40;99.90;;;;;;4974490;28;19929;-75
2021/10/23 07:35:27;;;;;;;;;;;7.40;99.90;;;;;;4975055;28;19988;-74
2021/10/23 07:37:52;;;;;;;;;;;7.50;99.90;;;;;;4975301;28;19906;-77
2021/10/23 07:40:18;;;;;;;;;;;7.50;99.90;;;;;;4974901;28;19906;-77
2021/10/23 07:42:43;;;;;;;;;;;7.40;99.90;;;;;;4974908;28;19910;-77
2021/10/23 07:45:10;;;;;;;;;;;7.60;99.90;;;;;;4975100;28;19965;-75
2021/10/23 07:47:39;;;;;;;;;;;7.60;99.90;;;;;;4973615;28;19906;-84
2021/10/23 07:50:05;;;;;;;;;;;7.80;99.90;;;;;;4974920;28;19906;-76
2021/10/23 07:52:31;;;;;;;;;;;7.90;99.90;;;;;;4974936;28;19906;-76
2021/10/23 07:54:56;;;;;;;;;;;7.90;99.90;;;;;;4974831;28;19969;-75
2021/10/23 07:57:22;;;;;;;;;;;7.90;99.90;;;;;;4975083;28;19957;-74
2021/10/23 07:59:47;;;;;;;;;;;7.90;99.90;;;;;;4974834;28;19961;-76
2021/10/23 08:02:13;;;;;;;;;;;7.70;99.90;;;;;;4974799;28;19972;-76
2021/10/23 08:04:38;;;;;;;;;;;7.70;99.90;;;;;;4974999;28;20008;-75
2021/10/23 08:07:05;;;;;;;;;;;7.70;99.90;;;;;;4975027;28;19906;-72
2021/10/23 08:09:34;;;;;;;;;;;7.80;99.90;;;;;;4974744;28;19906;-73
2021/10/23 08:12:01;;;;;;;;;;;7.90;99.90;;;;;;4974832;28;20302;-73
2021/10/23 08:14:26;;;;;;;;;;;8.30;99.90;;;;;;4974858;28;19921;-77
2021/10/23 08:16:52;;;;;;;;;;;8.20;99.90;;;;;;4974734;28;19906;-75
2021/10/23 08:19:19;;;;;;;;;;;8.30;99.90;;;;;;4975270;28;20359;-76
2021/10/23 08:21:44;;;;;;;;;;;8.40;99.90;;;;;;4974599;28;20363;-73
2021/10/23 08:24:12;;;;;;;;;;;8.40;99.90;;;;;;4974186;28;19910;-75
2021/10/23 08:26:38;;;;;;;;;;;8.50;99.90;;;;;;4974358;28;19906;-79
2021/10/23 08:29:03;;;;;;;;;;;8.70;99.90;;;;;;4974889;28;19905;-76
2021/10/23 08:31:29;;;;;;;;;;;9.00;99.90;;;;;;4974588;28;20294;-75
2021/10/23 08:33:57;;;;;;;;;;;9.30;99.90;;;;;;4974052;28;19917;-73
2021/10/23 08:36:23;;;;;;;;;;;9.50;99.90;;;;;;4974261;28;20401;-76
2021/10/23 08:38:48;;;;;;;;;;;9.70;99.90;;;;;;4974727;28;19953;-73
2021/10/23 08:41:14;;;;;;;;;;;10.00;99.90;;;;;;4989636;28;19910;-73
2021/10/23 08:43:43;;;;;;;;;;;10.20;99.90;;;;;;4973241;28;19910;-75
2021/10/23 08:46:13;;;;;;;;;;;10.60;99.90;;;;;;4978432;28;19910;-76
2021/10/23 08:48:40;;;;;;;;;;;10.90;99.90;;;;;;4978520;28;19906;-75
2021/10/23 08:51:06;;;;;;;;;;;11.00;99.90;;;;;;4978360;28;20005;-75
2021/10/23 08:53:32;;;;;;;;;;;11.30;99.90;;;;;;4977972;28;19952;-73
2021/10/23 08:55:58;;;;;;;;;;;11.80;99.90;;;;;;4978319;28;19906;-75
2021/10/23 08:58:24;;;;;;;;;;;12.10;99.90;;;;;;4978111;28;19913;-74
2021/10/23 09:00:49;;;;;;;;;;;12.40;99.90;;;;;;4977772;28;19910;-72
2021/10/23 09:03:16;;;;;;;;;;;13.00;99.90;;;;;;4977289;28;19929;-72
2021/10/23 09:05:42;;;;;;;;;;;13.50;99.90;;;;;;4977314;28;19913;-73
2021/10/23 09:08:12;;;;;;;;;;;13.50;99.90;;;;;;4977940;28;20278;-75
2021/10/23 09:10:38;;;;;;;;;;;13.40;99.90;;;;;;4977807;28;19906;-70
2021/10/23 09:13:05;;;;;;;;;;;13.40;99.90;;;;;;4977565;28;20350;-73
2021/10/23 09:15:31;;;;;;;;;;;13.50;99.90;;;;;;4977801;28;19914;-72
2021/10/23 09:17:57;;;;;;;;;;;13.90;99.90;;;;;;4977918;28;19913;-73
2021/10/23 09:20:22;;;;;;;;;;;13.90;99.90;;;;;;4977438;28;19906;-75
2021/10/23 09:22:49;;;;;;;;;;;13.70;99.90;;;;;;4977468;28;19933;-73
2021/10/23 09:25:25;;;;;;;;;;;13.70;99.90;;;;;;4977820;28;19910;-73
2021/10/23 09:28:13;;;;;;;;;;;13.70;99.90;;;;;;4977610;28;20428;-75
2021/10/23 09:30:46;;;;;;;;;;;13.80;99.90;;;;;;4977569;28;19917;-72
2021/10/23 09:33:13;;;;;;;;;;;13.80;99.90;;;;;;4977210;28;20267;-72
2021/10/23 09:35:40;;;;;;;;;;;14.00;99.90;;;;;;4977157;28;19910;-73
2021/10/23 09:38:06;;;;;;;;;;;14.20;99.90;;;;;;4977673;28;19906;-74
2021/10/23 09:40:32;;;;;;;;;;;14.50;99.90;;;;;;4977372;28;19910;-74
2021/10/23 09:43:17;;;;;;;;;;;14.70;99.90;;;;;;4992157;28;19965;-72
2021/10/23 09:45:55;;;;;;;;;;;14.80;99.90;;;;;;4977466;28;19910;-74
2021/10/23 09:48:27;;;;;;;;;;;15.40;99.90;;;;;;4976919;28;19906;-74
2021/10/23 09:51:05;;;;;;;;;;;15.70;99.90;;;;;;4977162;28;19912;-73
2021/10/23 09:53:34;;;;;;;;;;;15.60;99.90;;;;;;4976825;28;19931;-71
2021/10/23 09:56:00;;;;;;;;;;;15.80;99.90;;;;;;4975831;28;19914;-75
2021/10/23 09:58:26;;;;;;;;;;;15.80;99.90;;;;;;4977076;28;19906;-71
2021/10/23 10:00:52;;;;;;;;;;;15.70;99.90;;;;;;4976665;28;19906;-71
2021/10/23 10:03:37;;;;;;;;;;;15.60;99.90;;;;;;4976492;28;19912;-72
2021/10/23 10:06:02;;;;;;;;;;;15.50;99.90;;;;;;4974398;28;19906;-73
2021/10/23 10:08:29;;;;;;;;;;;15.30;99.90;;;;;;4976189;28;19906;-73
2021/10/23 10:10:55;;;;;;;;;;;15.20;99.90;;;;;;4976756;28;19906;-72
2021/10/23 10:13:22;;;;;;;;;;;15.20;99.90;;;;;;4976471;28;19906;-73
2021/10/23 10:15:49;;;;;;;;;;;15.20;99.90;;;;;;4976949;28;19906;-70
2021/10/23 10:18:15;;;;;;;;;;;15.20;99.90;;;;;;4976365;28;19956;-72
2021/10/23 10:20:44;;;;;;;;;;;15.10;99.90;;;;;;4976601;28;19949;-73
2021/10/23 10:23:11;;;;;;;;;;;15.10;99.90;;;;;;4976148;28;19906;-73
2021/10/23 10:25:38;;;;;;;;;;;15.10;99.90;;;;;;4976233;28;19905;-73
2021/10/23 10:28:13;;;;;;;;;;;15.00;99.90;;;;;;4976022;28;19957;-74
2021/10/23 10:30:40;;;;;;;;;;;14.90;99.90;;;;;;4976158;28;19906;-71
2021/10/23 10:33:21;;;;;;;;;;;15.00;99.90;;;;;;4976640;28;19973;-73
2021/10/23 10:36:12;;;;;;;;;;;15.00;99.90;;;;;;4976323;28;19906;-70
2021/10/23 10:44:10;;;;;;;;;;;14.70;99.90;;;;;;4976283;28;20433;-79
2021/10/23 10:46:54;;;;;;;;;;;14.80;99.90;;;;;;4975738;28;20370;-74
2021/10/23 10:49:38;;;;;;;;;;;14.80;99.90;;;;;;4975754;28;20358;-74
2021/10/23 10:52:23;;;;;;;;;;;14.90;99.90;;;;;;4976009;28;19912;-74
2021/10/23 10:55:07;;;;;;;;;;;14.90;99.90;;;;;;4976036;28;19913;-74
2021/10/23 10:57:52;;;;;;;;;;;14.90;99.50;;;;;;4975925;28;19906;-73
2021/10/23 11:00:18;;;;;;;;;;;15.00;99.30;;;;;;4975536;28;19952;-73
2021/10/23 11:02:43;;;;;;;;;;;15.00;99.10;;;;;;4976150;28;19906;-74
2021/10/23 11:05:10;;;;;;;;;;;15.00;99.10;;;;;;4975438;28;19913;-74
2021/10/23 11:07:54;;;;;;;;;;;15.00;99.00;;;;;;4975851;28;20001;-74
2021/10/23 11:10:38;;;;;;;;;;;15.00;97.30;;;;;;4975696;28;20392;-73
2021/10/23 11:13:22;;;;;;;;;;;15.00;98.60;;;;;;4975932;28;19957;-73
2021/10/23 11:15:48;;;;;;;;;;;14.90;98.00;;;;;;4974108;28;19906;-74
2021/10/23 11:18:15;;;;;;;;;;;14.90;98.70;;;;;;4975197;28;20267;-74
2021/10/23 11:20:42;;;;;;;;;;;14.90;98.00;;;;;;4975660;28;19906;-74
2021/10/23 11:23:08;;;;;;;;;;;14.90;99.70;;;;;;4974671;28;19906;-74
2021/10/23 11:25:37;;;;;;;;;;;14.90;99.00;;;;;;4975148;28;19961;-74
2021/10/23 11:28:08;;;;;;;;;;;15.00;98.30;;;;;;4975078;28;19921;-74
2021/10/23 11:30:39;;;;;;;;;;;14.90;99.10;;;;;;4975460;28;19906;-74
2021/10/23 11:33:06;;;;;;;;;;;14.90;99.20;;;;;;4975164;28;19915;-74
2021/10/23 11:35:33;;;;;;;;;;;15.00;97.70;;;;;;4975634;28;19906;-74
2021/10/23 11:38:00;;;;;;;;;;;15.00;97.90;;;;;;4975069;28;20372;-73
2021/10/23 11:40:25;;;;;;;;;;;15.00;98.00;;;;;;4975075;28;19906;-74
2021/10/23 11:42:51;;;;;;;;;;;14.90;98.50;;;;;;4974989;28;20371;-74
2021/10/23 11:45:21;;;;;;;;;;;14.90;99.50;;;;;;4974899;28;19917;-74
2021/10/23 11:47:47;;;;;;;;;;;14.90;98.90;;;;;;4975006;28;20327;-74
2021/10/23 11:50:22;;;;;;;;;;;14.90;98.60;;;;;;4974973;28;19942;-74
2021/10/23 11:52:48;;;;;;;;;;;14.90;96.90;;;;;;4975140;28;19907;-74
2021/10/23 11:55:23;;;;;;;;;;;15.00;98.40;;;;;;4974875;28;19906;-74
2021/10/23 11:57:53;;;;;;;;;;;15.20;98.40;;;;;;4975192;28;19909;-74
2021/10/23 12:00:19;;;;;;;;;;;15.30;99.70;;;;;;4974842;28;19910;-74
2021/10/23 12:02:49;;;;;;;;;;;15.40;98.00;;;;;;4974772;28;20380;-73
2021/10/23 12:05:19;;;;;;;;;;;15.40;97.40;;;;;;4975251;28;19966;-74
2021/10/23 12:07:45;;;;;;;;;;;15.30;98.20;;;;;;4974785;28;19913;-73
2021/10/23 12:10:11;;;;;;;;;;;15.30;98.10;;;;;;4973442;28;19910;-74
2021/10/23 12:12:37;;;;;;;;;;;15.10;99.30;;;;;;4975293;28;19913;-74
2021/10/23 12:15:15;;;;;;;;;;;15.10;99.40;;;;;;4974699;28;19913;-74
2021/10/23 12:17:41;;;;;;;;;;;15.20;99.90;;;;;;4974993;28;20283;-74
2021/10/23 12:20:13;;;;;;;;;;;15.20;99.70;;;;;;4977034;28;19906;-74
2021/10/23 12:22:38;;;;;;;;;;;15.20;99.30;;;;;;4978549;28;19906;-73
2021/10/23 12:25:09;;;;;;;;;;;15.20;99.70;;;;;;4978640;28;19916;-74
2021/10/23 12:27:34;;;;;;;;;;;15.20;98.90;;;;;;4978215;28;19918;-73
2021/10/23 12:30:00;;;;;;;;;;;15.20;97.40;;;;;;4978913;28;19942;-74
2021/10/23 12:32:25;;;;;;;;;;;15.20;97.60;;;;;;4978603;28;19992;-74
2021/10/23 12:34:50;;;;;;;;;;;15.10;98.20;;;;;;4978572;28;19906;-74
2021/10/23 12:37:25;;;;;;;;;;;15.00;98.70;;;;;;4978500;28;19913;-74
2021/10/23 12:40:11;;;;;;;;;;;15.00;99.10;;;;;;4978448;28;19953;-73
2021/10/23 12:42:40;;;;;;;;;;;14.90;97.90;;;;;;4992789;28;20400;-73
2021/10/23 12:45:07;;;;;;;;;;;14.80;98.60;;;;;;4978010;28;19910;-74
2021/10/23 12:47:33;;;;;;;;;;;14.70;98.30;;;;;;4978312;28;19997;-73
2021/10/23 12:49:58;;;;;;;;;;;14.70;98.90;;;;;;4977983;28;20000;-74
2021/10/23 12:52:24;;;;;;;;;;;14.60;97.60;;;;;;4978243;28;19914;-74
2021/10/23 12:54:49;;;;;;;;;;;14.50;98.20;;;;;;4977914;28;19910;-73
2021/10/23 12:57:15;;;;;;;;;;;14.50;99.40;;;;;;4978137;28;19906;-73
2021/10/23 12:59:40;;;;;;;;;;;14.40;99.90;;;;;;4977836;28;19906;-74
2021/10/23 13:02:06;;;;;;;;;;;14.40;99.90;;;;;;4978033;28;19906;-74
2021/10/23 13:04:32;;;;;;;;;;;14.40;99.90;;;;;;4977680;28;19910;-73
2021/10/23 13:06:57;;;;;;;;;;;14.40;99.90;;;;;;4977703;28;19905;-74
2021/10/23 13:09:23;;;;;;;;;;;14.50;99.90;;;;;;4977826;28;19910;-74
2021/10/23 13:11:49;;;;;;;;;;;14.60;99.90;;;;;;4977606;28;19906;-74
2021/10/23 13:14:14;;;;;;;;;;;14.50;98.70;;;;;;4978096;28;20008;-74
2021/10/23 13:16:40;;;;;;;;;;;14.60;99.10;;;;;;4977811;28;19960;-74
2021/10/23 13:19:05;;;;;;;;;;;14.60;98.80;;;;;;4977462;28;19912;-74
2021/10/23 13:21:31;;;;;;;;;;;14.60;99.10;;;;;;4977968;28;19910;-73
2021/10/23 13:23:56;;;;;;;;;;;14.60;99.10;;;;;;4977178;28;19914;-74
2021/10/23 13:26:22;;;;;;;;;;;14.60;99.70;;;;;;4977626;28;19906;-74
2021/10/23 13:28:48;;;;;;;;;;;14.50;99.30;;;;;;4976843;28;19918;-74
2021/10/23 13:31:14;;;;;;;;;;;14.50;99.50;;;;;;4991873;28;19943;-74
2021/10/23 13:33:40;;;;;;;;;;;14.40;99.50;;;;;;4977442;28;20374;-74
2021/10/23 13:36:08;;;;;;;;;;;14.40;98.90;;;;;;4977125;28;19913;-74
2021/10/23 13:38:34;;;;;;;;;;;14.40;99.20;;;;;;4977387;28;19992;-74
2021/10/23 13:41:00;;;;;;;;;;;14.50;99.20;;;;;;4977612;28;19914;-74
2021/10/23 13:43:25;;;;;;;;;;;14.50;99.80;;;;;;4977241;28;20270;-74
2021/10/23 13:45:51;;;;;;;;;;;14.60;99.50;;;;;;4976994;28;19906;-74
2021/10/23 13:48:16;;;;;;;;;;;14.60;99.20;;;;;;4977237;28;19930;-74
2021/10/23 13:50:42;;;;;;;;;;;14.50;99.70;;;;;;4976879;28;19906;-74
2021/10/23 13:53:08;;;;;;;;;;;14.50;99.90;;;;;;4977154;28;19941;-74
2021/10/23 13:55:33;;;;;;;;;;;14.60;99.40;;;;;;4976802;28;19906;-73
2021/10/23 13:57:59;;;;;;;;;;;14.50;99.50;;;;;;4977328;28;19914;-73
2021/10/23 14:00:24;;;;;;;;;;;14.50;98.90;;;;;;4976722;28;19906;-74
2021/10/23 14:02:51;;;;;;;;;;;14.50;99.90;;;;;;4976939;28;19906;-74
2021/10/23 14:05:17;;;;;;;;;;;14.50;99.10;;;;;;4976615;28;19914;-74
2021/10/23 14:07:42;;;;;;;;;;;14.60;98.70;;;;;;4976646;28;20395;-74
2021/10/23 14:10:08;;;;;;;;;;;14.70;99.50;;;;;;4976530;28;19914;-74
2021/10/23 14:12:33;;;;;;;;;;;14.70;99.90;;;;;;4976737;28;20279;-74
2021/10/23 14:14:59;;;;;;;;;;;14.80;99.90;;;;;;4976723;28;19910;-74
2021/10/23 14:17:24;;;;;;;;;;;14.80;99.90;;;;;;4977278;28;20022;-74
2021/10/23 14:19:51;;;;;;;;;;;14.80;99.90;;;;;;4976400;28;20333;-74
2021/10/23 14:22:18;;;;;;;;;;;14.90;99.90;;;;;;4976541;28;19906;-74
2021/10/23 14:24:46;;;;;;;;;;;15.00;99.90;;;;;;4976736;28;19910;-74
2021/10/23 14:27:14;;;;;;;;;;;15.00;99.90;;;;;;4976185;28;19918;-74